Time;durP1;ratioP1;P1;durP2;ratioP2;P2;SDS_P1;SDS_P2;PMS_P1;PMS_P2;Temp;Humidity;BMP_temperature;BMP_pressure;BME280_temperature;BME280_humidity;BME280_pressure;Samples;Min_cycle;Max_cycle;Signal;HPM_P1;HPM_P2
2023/10/08 00:01:41;;;;;;;5.22;1.30;;;18.80;99.90;;;19.13;100.00;101717.88;5273847;27;20048;-48
2023/10/08 00:04:18;;;;;;;2.25;1.17;;;18.80;99.90;;;19.12;100.00;101709.91;5271968;27;20044;-49
2023/10/08 00:06:52;;;;;;;2.92;1.10;;;18.70;99.90;;;19.11;100.00;101701.09;5272998;28;20044;-50
2023/10/08 00:09:25;;;;;;;1.48;1.00;;;18.70;99.90;;;19.10;100.00;101709.88;5282199;27;20562;-52
2023/10/08 00:11:59;;;;;;;2.60;1.15;;;18.70;99.90;;;19.08;100.00;101708.97;5274134;27;20142;-49
2023/10/08 00:14:32;;;;;;;3.08;1.00;;;18.70;99.90;;;19.07;100.00;101717.78;5283420;27;20051;-51
2023/10/08 00:17:10;;;;;;;2.28;1.10;;;18.70;99.90;;;19.05;100.00;101716.88;5279663;27;20104;-50
2023/10/08 00:19:43;;;;;;;2.40;1.00;;;18.70;99.90;;;19.01;100.00;101717.69;5286251;27;20147;-50
2023/10/08 00:22:18;;;;;;;2.40;1.27;;;18.60;99.90;;;18.98;100.00;101717.66;5274047;28;20062;-51
2023/10/08 00:24:57;;;;;;;2.28;1.13;;;18.60;99.90;;;18.95;100.00;101722.88;5275316;27;20085;-49
2023/10/08 00:27:38;;;;;;;1.83;1.00;;;18.60;99.90;;;18.91;100.00;101715.78;5271724;28;20047;-50
2023/10/08 00:30:17;;;;;;;2.70;1.10;;;18.50;99.90;;;18.87;100.00;101711.31;5271048;28;20050;-50
2023/10/08 00:32:52;;;;;;;2.83;1.02;;;18.50;99.90;;;18.84;100.00;101708.59;5285857;27;20063;-50
2023/10/08 00:35:24;;;;;;;1.38;1.20;;;18.50;99.90;;;18.80;100.00;101718.25;5274920;28;20270;-51
2023/10/08 00:38:00;;;;;;;2.03;1.15;;;18.40;99.90;;;18.76;100.00;101707.59;5279529;27;20047;-49
2023/10/08 00:40:38;;;;;;;2.28;1.05;;;18.40;99.90;;;18.70;100.00;101711.91;5272082;27;20128;-51
2023/10/08 00:43:11;;;;;;;2.78;1.60;;;18.30;99.90;;;18.68;100.00;101712.78;5272744;28;20458;-49
2023/10/08 00:45:50;;;;;;;2.78;1.45;;;18.30;99.90;;;18.68;100.00;101716.28;5283000;28;20047;-49
2023/10/08 00:48:28;;;;;;;4.22;1.70;;;18.30;99.90;;;18.68;100.00;101721.56;5270655;28;20071;-50
2023/10/08 00:51:14;;;;;;;4.47;1.77;;;18.30;99.90;;;18.68;100.00;101724.22;5293660;27;20132;-50
2023/10/08 00:53:49;;;;;;;5.32;1.75;;;18.30;99.90;;;18.69;100.00;101731.28;5276717;27;20104;-50
2023/10/08 00:56:45;;;;;;;4.60;2.10;;;18.30;99.90;;;18.70;100.00;101732.16;5275094;27;20424;-50
2023/10/08 00:59:20;;;;;;;3.78;1.65;;;18.30;99.90;;;18.72;100.00;101719.00;5275054;28;20039;-49
2023/10/08 01:01:59;;;;;;;3.10;1.60;;;18.40;99.90;;;18.73;100.00;101720.78;5275164;28;20070;-50
2023/10/08 01:04:34;;;;;;;4.88;1.85;;;18.40;99.90;;;18.72;100.00;101708.44;5271039;28;20050;-50
2023/10/08 01:07:13;;;;;;;4.57;2.10;;;18.40;99.90;;;18.72;100.00;101705.81;5291090;27;20456;-50
2023/10/08 01:09:50;;;;;;;3.28;1.60;;;18.40;99.90;;;18.71;100.00;101707.53;5280440;28;20059;-50
2023/10/08 01:12:29;;;;;;;3.78;1.73;;;18.40;99.90;;;18.70;100.00;101713.66;5277986;28;20039;-50
2023/10/08 01:15:16;;;;;;;2.10;1.30;;;18.40;99.90;;;18.67;100.00;101703.97;5276684;27;20043;-50
2023/10/08 01:17:57;;;;;;;2.50;1.40;;;18.40;99.90;;;18.66;100.00;101704.81;5271614;27;20052;-50
2023/10/08 01:20:34;;;;;;;;;;;18.30;99.90;;;18.63;100.00;101715.28;5274673;28;20048;-50
2023/10/08 01:23:13;;;;;;;2.97;1.13;;;18.30;99.90;;;18.61;100.00;101722.31;5281523;28;19926;-49
2023/10/08 01:25:50;;;;;;;2.25;1.30;;;18.30;99.90;;;18.61;100.00;101724.06;5275065;27;20048;-49
2023/10/08 01:28:28;;;;;;;2.15;1.42;;;18.30;99.90;;;18.57;100.00;101717.84;5297557;27;20043;-51
2023/10/08 01:31:04;;;;;;;4.05;1.50;;;18.20;99.90;;;18.53;100.00;101723.94;5273468;28;20050;-49
2023/10/08 01:33:38;;;;;;;2.92;1.25;;;18.20;99.90;;;18.48;100.00;101715.03;5272132;28;20044;-49
2023/10/08 01:36:12;;;;;;;3.15;1.55;;;18.20;99.90;;;18.42;100.00;101704.38;5275239;27;20417;-48
2023/10/08 01:38:49;;;;;;;3.17;1.42;;;18.10;99.90;;;18.36;100.00;101704.28;5278187;27;20055;-49
2023/10/08 01:41:29;;;;;;;2.13;1.00;;;18.00;99.90;;;18.30;100.00;101704.16;5289391;27;20054;-50
2023/10/08 01:44:07;;;;;;;2.33;1.60;;;18.00;99.90;;;18.25;100.00;101701.44;5278018;27;20459;-49
2023/10/08 01:46:45;;;;;;;2.53;1.25;;;17.90;99.90;;;18.24;100.00;101693.50;5274580;27;20070;-50
2023/10/08 01:49:21;;;;;;;3.83;1.17;;;17.90;99.90;;;18.21;100.00;101688.19;5289014;27;20039;-50
2023/10/08 01:51:54;;;;;;;3.25;1.33;;;17.90;99.90;;;18.20;100.00;101687.28;5288270;27;20067;-50
2023/10/08 01:54:28;;;;;;;3.30;1.55;;;17.80;99.90;;;18.20;100.00;101683.78;5275918;28;20528;-50
2023/10/08 01:57:01;;;;;;;4.45;1.60;;;17.80;99.90;;;18.16;100.00;101696.88;5268247;28;20043;-49
2023/10/08 01:59:33;;;;;;;4.40;1.90;;;17.80;99.90;;;18.15;100.00;101716.22;5280448;27;20199;-50
2023/10/08 02:02:06;;;;;;;6.85;1.80;;;17.80;99.90;;;18.16;100.00;101714.47;5267511;28;20039;-49
2023/10/08 02:04:39;;;;;;;5.25;1.92;;;17.80;99.90;;;18.17;100.00;101714.50;5275987;27;20453;-49
2023/10/08 02:07:13;;;;;;;3.67;1.73;;;17.80;99.90;;;18.17;100.00;101709.22;5286714;27;20402;-51
2023/10/08 02:09:48;;;;;;;3.42;1.95;;;17.90;99.90;;;18.17;100.00;101719.78;5286011;27;20059;-50
2023/10/08 02:12:21;;;;;;;3.95;1.70;;;17.90;99.90;;;18.15;100.00;101724.16;5266977;28;20039;-48
2023/10/08 02:14:54;;;;;;;4.63;1.75;;;17.90;99.90;;;18.14;100.00;101725.00;5273243;28;20490;-49
2023/10/08 02:17:28;;;;;;;3.30;1.30;;;17.90;99.90;;;18.15;100.00;101724.16;5271704;28;20043;-49
2023/10/08 02:20:00;;;;;;;3.40;1.42;;;17.80;99.90;;;18.10;100.00;101717.00;5271252;27;20074;-49
2023/10/08 02:22:38;;;;;;;2.58;1.40;;;17.80;99.90;;;18.05;100.00;101719.53;5277919;28;20035;-51
2023/10/08 02:25:12;;;;;;;4.13;1.92;;;17.80;99.90;;;18.01;100.00;101708.94;5267460;28;20052;-50
2023/10/08 02:27:45;;;;;;;2.53;1.40;;;17.70;99.90;;;17.97;100.00;101702.69;5273053;28;20040;-50
2023/10/08 02:30:17;;;;;;;3.25;1.50;;;17.70;99.90;;;17.93;100.00;101705.22;5285366;28;20123;-50
2023/10/08 02:32:51;;;;;;;4.45;1.63;;;17.60;99.90;;;17.92;100.00;101706.09;5274941;28;20051;-50
2023/10/08 02:35:23;;;;;;;4.65;1.58;;;17.60;99.90;;;17.92;100.00;101716.66;5271589;28;20100;-50
2023/10/08 02:37:56;;;;;;;3.30;1.60;;;17.60;99.90;;;17.90;100.00;101727.19;5268429;28;20136;-51
2023/10/08 02:40:30;;;;;;;2.78;1.65;;;17.60;99.90;;;17.89;100.00;101728.03;5270557;28;20451;-50
2023/10/08 02:43:07;;;;;;;2.53;1.55;;;17.60;99.90;;;17.88;100.00;101726.28;5278420;28;20413;-50
2023/10/08 02:45:40;;;;;;;2.33;1.33;;;17.60;99.90;;;17.87;100.00;101724.50;5268589;28;20047;-50
2023/10/08 02:48:13;;;;;;;3.67;1.48;;;17.60;99.90;;;17.86;100.00;101730.59;5272459;28;20324;-51
2023/10/08 02:50:49;;;;;;;2.50;1.35;;;17.50;99.90;;;17.85;100.00;101726.19;5267050;28;20050;-49
2023/10/08 02:53:23;;;;;;;2.72;1.17;;;17.50;99.90;;;17.83;100.00;101725.28;5279754;28;20043;-51
2023/10/08 02:55:57;;;;;;;2.05;1.30;;;17.50;99.90;;;17.81;100.00;101721.72;5273087;28;20043;-50
2023/10/08 02:58:36;;;;;;;3.22;1.30;;;17.50;99.90;;;17.80;100.00;101722.56;5278461;28;20130;-49
2023/10/08 03:01:12;;;;;;;3.33;1.40;;;17.50;99.90;;;17.78;100.00;101729.56;5272981;28;20070;-50
2023/10/08 03:03:46;;;;;;;2.08;1.05;;;17.50;99.90;;;17.75;100.00;101732.16;5279151;28;20654;-50
2023/10/08 03:06:19;;;;;;;2.72;1.27;;;17.40;99.90;;;17.73;100.00;101720.66;5273387;28;20047;-50
2023/10/08 03:08:55;;;;;;;2.85;1.30;;;17.40;99.90;;;17.72;100.00;101718.91;5282810;28;20317;-49
2023/10/08 03:11:29;;;;;;;3.72;1.58;;;17.40;99.90;;;17.68;100.00;101717.94;5274332;28;20267;-50
2023/10/08 03:14:01;;;;;;;2.72;1.40;;;17.40;99.90;;;17.67;100.00;101717.88;5296643;28;20048;-50
2023/10/08 03:16:37;;;;;;;2.67;1.20;;;17.30;99.90;;;17.63;100.00;101720.47;5275173;27;20047;-49
2023/10/08 03:19:09;;;;;;;2.97;1.40;;;17.30;99.90;;;17.61;100.00;101722.19;5292977;27;20063;-51
2023/10/08 03:21:48;;;;;;;3.35;1.50;;;17.30;99.90;;;17.58;100.00;101722.09;5248175;28;20052;-52
2023/10/08 03:24:36;;;;;;;3.60;1.50;;;17.20;99.90;;;17.56;100.00;101733.50;5265900;28;20063;-49
2023/10/08 03:27:15;;;;;;;4.18;1.52;;;17.20;99.90;;;17.52;100.00;101732.50;5247145;28;20055;-49
2023/10/08 03:29:48;;;;;;;4.20;1.65;;;17.20;99.90;;;17.49;100.00;101731.59;5246058;28;20228;-51
2023/10/08 03:32:26;;;;;;;2.80;1.60;;;17.20;99.90;;;17.45;100.00;101733.25;5243262;28;20403;-48
2023/10/08 03:35:04;;;;;;;3.45;1.48;;;17.20;99.90;;;17.41;100.00;101741.97;5246331;28;20052;-50
2023/10/08 03:37:41;;;;;;;3.20;1.95;;;17.10;99.90;;;17.37;100.00;101758.56;5251266;28;20407;-50
2023/10/08 03:40:32;;;;;;;4.07;1.80;;;17.10;99.90;;;17.34;100.00;101748.84;5248398;28;20452;-50
2023/10/08 03:43:15;;;;;;;2.97;1.50;;;17.00;99.90;;;17.30;100.00;101751.38;5248343;28;20154;-50
2023/10/08 03:45:53;;;;;;;4.55;1.70;;;17.00;99.90;;;17.24;100.00;101752.13;5245659;28;20051;-50
2023/10/08 03:48:29;;;;;;;3.63;1.52;;;16.90;99.90;;;17.19;100.00;101753.75;5244010;28;20032;-49
2023/10/08 03:51:11;;;;;;;4.75;1.65;;;16.90;99.90;;;17.17;100.00;101750.19;5242099;28;20106;-49
2023/10/08 03:53:57;;;;;;;4.15;1.70;;;16.80;99.90;;;17.15;100.00;101751.00;5261439;28;20050;-48
2023/10/08 03:56:31;;;;;;;5.22;1.70;;;16.80;99.90;;;17.12;100.00;101746.56;5244958;28;20433;-50
2023/10/08 03:59:12;;;;;;;4.20;1.50;;;16.80;99.90;;;17.08;100.00;101745.63;5244371;28;20059;-50
2023/10/08 04:01:45;;;;;;;;;;;16.80;99.90;;;17.05;100.00;101747.28;5249360;28;20083;-51
2023/10/08 04:04:17;;;;;;;4.10;1.73;;;16.80;99.90;;;17.03;100.00;101746.38;5245276;28;19920;-51
2023/10/08 04:06:54;;;;;;;4.20;1.60;;;16.70;99.90;;;17.02;100.00;101750.75;5246943;28;20124;-50
2023/10/08 04:09:31;;;;;;;3.58;1.50;;;16.70;99.90;;;16.98;100.00;101742.72;5245624;28;20079;-51
2023/10/08 04:12:10;;;;;;;4.78;1.52;;;16.70;99.90;;;16.97;100.00;101767.28;5247266;28;20046;-51
2023/10/08 04:14:45;;;;;;;4.05;1.58;;;16.60;99.90;;;16.91;100.00;101768.03;5244842;28;20097;-51
2023/10/08 04:17:22;;;;;;;4.40;1.60;;;16.60;99.90;;;16.88;100.00;101753.88;5262614;28;20047;-50
2023/10/08 04:19:58;;;;;;;2.83;1.30;;;16.60;99.90;;;16.85;100.00;101741.53;5241130;28;20102;-49
2023/10/08 04:22:30;;;;;;;3.67;1.60;;;16.60;99.90;;;16.85;100.00;101741.53;5247225;28;20040;-49
2023/10/08 04:25:05;;;;;;;4.53;2.00;;;16.50;99.90;;;16.85;100.00;101736.28;5246459;28;20075;-51
2023/10/08 04:27:38;;;;;;;3.00;1.50;;;16.50;99.90;;;16.85;100.00;101741.53;5243734;28;20089;-50
2023/10/08 04:30:14;;;;;;;2.47;1.45;;;16.50;99.90;;;16.85;100.00;101744.19;5247812;28;20904;-50
2023/10/08 04:32:52;;;;;;;3.38;1.90;;;16.50;99.90;;;16.85;100.00;101745.91;5247854;28;20101;-50
2023/10/08 04:35:26;;;;;;;3.78;1.70;;;16.50;99.90;;;16.84;100.00;101729.22;5240600;28;20106;-50
2023/10/08 04:37:59;;;;;;;3.90;2.05;;;16.50;99.90;;;16.82;100.00;101736.19;5264147;28;20043;-50
2023/10/08 04:40:39;;;;;;;3.88;1.40;;;16.50;99.90;;;16.79;100.00;101746.66;5247743;28;20040;-49
2023/10/08 04:43:12;;;;;;;2.92;1.50;;;16.50;99.90;;;16.76;100.00;101754.50;5241971;28;20528;-49
2023/10/08 04:45:46;;;;;;;4.38;1.88;;;16.50;99.90;;;16.72;100.00;101757.88;5246711;28;20052;-50
2023/10/08 04:48:20;;;;;;;3.67;1.83;;;16.40;99.90;;;16.69;100.00;101755.13;5246506;28;20044;-52
2023/10/08 04:50:59;;;;;;;4.55;2.20;;;16.40;99.90;;;16.65;100.00;101740.13;5241273;28;20108;-49
2023/10/08 04:53:40;;;;;;;4.63;1.75;;;16.40;99.90;;;16.62;100.00;101737.41;5246221;28;20080;-51
2023/10/08 04:56:18;;;;;;;4.78;2.00;;;16.30;99.90;;;16.60;100.00;101740.00;5261372;28;20066;-51
2023/10/08 04:58:53;;;;;;;3.22;1.77;;;16.30;99.90;;;16.60;100.00;101739.13;5245767;28;20462;-49
2023/10/08 05:01:38;;;;;;;4.60;2.15;;;16.30;99.90;;;16.59;100.00;101763.66;5246549;28;20048;-49
2023/10/08 05:04:26;;;;;;;2.85;1.60;;;16.30;99.90;;;16.58;100.00;101778.56;5246328;28;20514;-50
2023/10/08 05:07:17;;;;;;;3.80;1.52;;;16.30;99.90;;;16.54;100.00;101781.97;5244888;28;20123;-50
2023/10/08 05:10:03;;;;;;;4.00;1.90;;;16.30;99.90;;;16.50;100.00;101791.53;5239149;28;20113;-49
2023/10/08 05:12:42;;;;;;;4.10;1.67;;;16.20;99.90;;;16.47;100.00;101793.19;5235998;28;20483;-49
2023/10/08 05:15:33;;;;;;;3.13;1.35;;;16.20;99.90;;;16.43;100.00;101792.22;5240147;28;20208;-48
2023/10/08 05:18:23;;;;;;;4.40;1.63;;;16.20;99.90;;;16.40;100.00;101783.34;5244160;28;20125;-51
2023/10/08 05:21:04;;;;;;;3.42;1.48;;;16.10;99.90;;;16.36;100.00;101771.84;5246119;28;20052;-49
2023/10/08 05:24:08;;;;;;;4.90;1.92;;;16.10;99.90;;;16.35;100.00;101756.91;5244921;28;20044;-50
2023/10/08 05:26:47;;;;;;;4.30;1.70;;;16.10;99.90;;;16.36;100.00;101777.09;5241893;28;20109;-50
2023/10/08 05:32:37;;;;;;;4.35;1.85;;;16.10;99.90;;;16.34;100.00;101768.28;5262537;28;20470;-49
2023/10/08 05:35:48;;;;;;;4.10;1.77;;;16.00;99.90;;;16.31;100.00;101776.09;5263857;28;20066;-46
2023/10/08 05:38:38;;;;;;;4.80;1.90;;;16.10;99.90;;;16.28;100.00;101781.28;5241955;28;20068;-48
2023/10/08 05:41:28;;;;;;;4.15;1.98;;;16.00;99.90;;;16.22;100.00;101783.72;5253057;28;20041;-47
2023/10/08 05:44:23;;;;;;;3.35;1.77;;;16.00;99.90;;;16.17;100.00;101795.88;5245339;28;20057;-47
2023/10/08 05:47:26;;;;;;;3.50;1.95;;;15.90;99.90;;;16.11;100.00;101801.88;5236202;28;20310;-47
2023/10/08 05:53:01;;;;;;;5.18;2.08;;;15.80;99.90;;;16.02;100.00;101805.09;5237272;28;20147;-46
2023/10/08 05:55:47;;;;;;;4.43;1.73;;;15.80;99.90;;;15.98;100.00;101792.75;5238409;28;20127;-46
2023/10/08 05:58:35;;;;;;;4.57;2.13;;;15.70;99.90;;;15.97;100.00;101804.13;5234766;28;20387;-45
2023/10/08 06:01:09;;;;;;;3.13;1.60;;;15.70;99.90;;;15.98;100.00;101805.88;5246149;28;20510;-46
2023/10/08 06:03:59;;;;;;;5.22;2.33;;;15.70;99.90;;;15.99;100.00;101819.94;5246349;28;20169;-45
2023/10/08 06:06:47;;;;;;;5.40;2.08;;;15.70;99.90;;;15.99;100.00;101839.22;5251641;28;20055;-46
2023/10/08 06:09:21;;;;;;;4.88;2.20;;;15.70;99.90;;;15.96;100.00;101849.63;5241627;28;20160;-46
2023/10/08 06:12:08;;;;;;;5.38;2.10;;;15.70;99.90;;;15.95;100.00;101852.22;5244597;28;20079;-47
2023/10/08 06:17:55;;;;;;;5.85;2.30;;;15.70;99.90;;;16.00;100.00;101845.38;5234270;28;20047;-45
2023/10/08 06:20:27;;;;;;;3.60;1.70;;;15.70;99.90;;;16.05;100.00;101850.78;5234259;28;20571;-46
2023/10/08 06:23:06;;;;;;;4.68;1.80;;;15.80;99.90;;;16.09;100.00;101861.41;5245953;28;20052;-46
2023/10/08 06:25:45;;;;;;;3.03;1.67;;;15.80;99.90;;;16.12;100.00;101858.88;5255899;28;20195;-47
2023/10/08 06:28:20;;;;;;;5.00;1.98;;;15.80;99.90;;;16.17;100.00;101859.00;5240895;28;20085;-45
2023/10/08 06:30:55;;;;;;;3.50;1.92;;;15.90;99.90;;;16.21;100.00;101851.25;5246248;28;20079;-46
2023/10/08 06:33:30;;;;;;;4.55;2.10;;;15.90;99.90;;;16.27;100.00;101847.91;5238196;28;20135;-46
2023/10/08 06:36:13;;;;;;;4.97;2.20;;;16.00;99.90;;;16.31;100.00;101834.00;5255783;28;20506;-45
2023/10/08 06:38:48;;;;;;;5.63;2.25;;;16.00;99.90;;;16.36;100.00;101839.34;5237770;28;20466;-46
2023/10/08 06:41:29;;;;;;;5.95;2.40;;;16.10;99.90;;;16.40;100.00;101830.72;5236128;28;20387;-46
2023/10/08 06:44:03;;;;;;;3.65;1.52;;;16.10;99.90;;;16.46;100.00;101823.88;5261775;28;20040;-47
2023/10/08 06:46:35;;;;;;;5.82;2.50;;;16.20;99.90;;;16.51;100.00;101818.75;5241544;28;20326;-47
2023/10/08 06:49:12;;;;;;;4.13;2.20;;;16.20;99.90;;;16.55;100.00;101829.38;5244778;28;20495;-46
2023/10/08 06:51:44;;;;;;;4.10;1.90;;;16.30;99.90;;;16.62;100.00;101829.53;5251787;28;20048;-47
2023/10/08 06:54:17;;;;;;;5.35;2.20;;;16.30;99.90;;;16.66;100.00;101829.66;5244982;28;20141;-46
2023/10/08 06:56:53;;;;;;;4.05;1.92;;;16.40;99.90;;;16.75;100.00;101829.03;5243177;28;20044;-46
2023/10/08 06:59:25;;;;;;;3.83;1.80;;;16.40;99.90;;;16.82;100.00;101846.78;5268090;28;20093;-45
2023/10/08 07:01:58;;;;;;;4.20;1.95;;;16.50;99.90;;;16.87;100.00;101842.53;5249526;28;20124;-46
2023/10/08 07:04:31;;;;;;;5.57;2.30;;;16.60;99.90;;;16.93;100.00;101845.31;5247490;28;20048;-46
2023/10/08 07:07:07;;;;;;;5.63;2.10;;;16.60;99.90;;;16.95;100.00;101841.00;5249636;28;20043;-44
2023/10/08 07:09:40;;;;;;;5.75;2.30;;;16.70;99.90;;;16.99;100.00;101858.66;5249598;28;20052;-46
2023/10/08 07:12:19;;;;;;;5.97;2.33;;;16.70;99.90;;;17.05;100.00;101866.72;5243955;28;20549;-46
2023/10/08 07:14:51;;;;;;;4.93;2.30;;;16.70;99.90;;;17.12;100.00;101861.59;5248250;28;20048;-46
2023/10/08 07:17:27;;;;;;;4.55;1.98;;;16.80;99.90;;;17.16;100.00;101852.94;5247420;28;20135;-46
2023/10/08 07:20:00;;;;;;;4.80;2.10;;;16.80;99.90;;;17.19;100.00;101839.81;5246596;28;20048;-47
2023/10/08 07:22:33;;;;;;;4.05;1.90;;;16.80;99.90;;;17.22;100.00;101850.44;5249078;28;20044;-46
2023/10/08 07:25:08;;;;;;;6.72;2.53;;;16.90;99.90;;;17.27;100.00;101843.50;5248989;28;20048;-46
2023/10/08 07:27:42;;;;;;;5.85;2.47;;;16.90;99.90;;;17.32;100.00;101842.78;5246785;28;20467;-46
2023/10/08 07:30:26;;;;;;;5.03;2.03;;;17.00;99.90;;;17.40;100.00;101845.59;5243079;28;20376;-46
2023/10/08 07:32:59;;;;;;;4.78;2.00;;;17.00;99.90;;;17.46;100.00;101836.94;5248998;28;20052;-46
2023/10/08 07:35:38;;;;;;;5.82;2.72;;;17.10;99.90;;;17.50;100.00;101834.41;5245974;28;20422;-46
2023/10/08 07:38:10;;;;;;;5.40;2.20;;;17.10;99.90;;;17.55;100.00;101845.97;5266330;28;20044;-45
2023/10/08 07:40:44;;;;;;;5.05;2.40;;;17.20;99.90;;;17.60;100.00;101840.75;5250790;28;20411;-46
2023/10/08 07:43:20;;;;;;;5.63;2.35;;;17.20;99.90;;;17.67;100.00;101852.34;5248622;28;20491;-46
2023/10/08 07:45:54;;;;;;;6.05;2.63;;;17.30;99.90;;;17.79;100.00;101850.03;5250552;28;20045;-46
2023/10/08 07:48:29;;;;;;;5.75;2.60;;;17.40;99.90;;;17.96;100.00;101856.56;5248071;28;20044;-47
2023/10/08 07:51:02;;;;;;;4.95;2.20;;;17.50;99.90;;;18.10;100.00;101855.09;5265058;28;20070;-47
2023/10/08 07:53:38;;;;;;;4.82;2.17;;;17.70;99.90;;;18.26;100.00;101866.00;5243628;28;20048;-48
2023/10/08 07:56:11;;;;;;;7.70;2.92;;;17.80;99.90;;;18.62;100.00;101879.00;5264622;28;20511;-47
2023/10/08 07:58:44;;;;;;;6.68;2.75;;;18.00;99.90;;;19.23;100.00;101878.38;5239790;28;20044;-46
2023/10/08 08:01:21;;;;;;;6.40;2.60;;;18.40;99.90;;;19.54;100.00;101873.56;5249318;28;20058;-46
2023/10/08 08:03:53;;;;;;;5.38;2.33;;;18.80;99.90;;;19.57;100.00;101888.59;5244478;28;20085;-45
2023/10/08 08:06:25;;;;;;;5.80;2.00;;;18.90;99.90;;;19.47;100.00;101898.13;5252749;28;20043;-46
2023/10/08 08:08:58;;;;;;;4.78;2.10;;;18.90;99.90;;;19.36;100.00;101894.41;5245426;28;20072;-46
2023/10/08 08:11:36;;;;;;;5.07;2.40;;;18.80;99.90;;;19.27;100.00;101897.81;5237823;28;20055;-46
2023/10/08 08:14:10;;;;;;;5.15;2.17;;;18.80;99.90;;;19.22;100.00;101908.28;5248918;28;20051;-46
2023/10/08 08:16:46;;;;;;;4.05;2.17;;;18.80;99.90;;;19.16;100.00;101900.25;5265516;28;20395;-45
2023/10/08 08:19:24;;;;;;;7.35;2.58;;;18.80;99.90;;;19.16;100.00;101900.25;5247191;28;20044;-45
2023/10/08 08:22:02;;;;;;;4.25;2.10;;;18.80;99.90;;;19.19;100.00;101902.09;5263235;28;20055;-45
2023/10/08 08:24:37;;;;;;;5.40;2.63;;;18.70;99.90;;;19.28;100.00;101902.22;5245277;28;20528;-46
2023/10/08 08:27:23;;;;;;;5.97;2.10;;;18.80;99.90;;;19.35;100.00;101904.09;5248157;28;20129;-45
2023/10/08 08:30:09;;;;;;;5.25;2.17;;;18.90;99.90;;;19.45;100.00;101899.88;5247461;28;20055;-45
2023/10/08 08:32:43;;;;;;;5.55;2.40;;;18.90;99.90;;;19.55;100.00;101909.72;5251243;28;20446;-46
2023/10/08 08:35:16;;;;;;;8.35;2.30;;;19.00;99.90;;;19.56;100.00;101908.88;5248179;28;20125;-52
2023/10/08 08:37:49;;;;;;;4.38;2.05;;;19.10;99.90;;;19.59;100.00;101918.63;5245841;28;20077;-47
2023/10/08 08:40:22;;;;;;;5.25;2.60;;;19.10;99.90;;;19.55;100.00;101912.34;5261456;28;20048;-47
2023/10/08 08:42:58;;;;;;;6.15;2.60;;;19.10;99.90;;;19.51;100.00;101908.78;5244866;28;20044;-46
2023/10/08 08:45:33;;;;;;;6.40;2.30;;;19.00;99.90;;;19.48;100.00;101906.06;5248747;28;20044;-46
2023/10/08 08:48:07;;;;;;;7.28;2.38;;;19.00;99.90;;;19.45;100.00;101910.44;5240830;28;20139;-48
2023/10/08 08:50:40;;;;;;;6.32;2.30;;;19.00;99.90;;;19.43;100.00;101909.50;5245723;28;20076;-47
2023/10/08 08:53:16;;;;;;;7.40;2.50;;;19.00;99.90;;;19.44;100.00;101913.97;5247961;28;20494;-47
2023/10/08 08:55:48;;;;;;;4.18;2.00;;;19.00;99.90;;;19.43;100.00;101912.16;5244517;28;20097;-47
2023/10/08 08:58:21;;;;;;;4.80;2.08;;;19.00;99.90;;;19.43;100.00;101917.44;5243030;28;20040;-48
2023/10/08 09:00:55;;;;;;;3.83;1.90;;;19.00;99.90;;;19.44;100.00;101912.19;5248164;28;20071;-47
2023/10/08 09:03:31;;;;;;;4.15;1.98;;;19.00;99.90;;;19.46;100.00;101923.69;5253219;28;20051;-47
2023/10/08 09:06:04;;;;;;;5.18;1.85;;;19.00;99.90;;;19.48;100.00;101918.41;5245619;28;20056;-46
2023/10/08 09:08:41;;;;;;;4.28;1.90;;;19.00;99.90;;;19.43;100.00;101925.38;5251288;28;20048;-46
2023/10/08 09:11:18;;;;;;;5.63;1.88;;;19.10;99.90;;;19.38;100.00;101925.31;5260610;28;20036;-45
2023/10/08 09:13:50;;;;;;;5.47;2.05;;;19.00;99.90;;;19.37;100.00;101922.66;5243630;28;20060;-46
2023/10/08 09:16:27;;;;;;;4.63;2.05;;;18.90;99.90;;;19.38;100.00;101927.06;5242899;28;20044;-45
2023/10/08 09:19:01;;;;;;;5.15;2.25;;;19.00;99.90;;;19.40;100.00;101917.41;5243601;28;20075;-46
2023/10/08 09:21:36;;;;;;;5.95;2.25;;;18.90;99.90;;;19.51;100.00;101923.78;5245676;28;20118;-45
2023/10/08 09:24:11;;;;;;;4.32;2.10;;;19.00;99.90;;;19.66;100.00;101910.81;5245137;28;20044;-45
2023/10/08 09:26:49;;;;;;;4.35;2.28;;;19.10;99.90;;;19.87;100.00;101922.56;5246291;28;20483;-49
2023/10/08 09:29:24;;;;;;;19.30;3.85;;;19.30;99.90;;;20.07;100.00;101913.16;5246471;28;20054;-48
2023/10/08 09:31:59;;;;;;;21.77;3.30;;;19.50;99.90;;;20.27;100.00;101922.22;5248170;28;20048;-47
2023/10/08 09:34:32;;;;;;;13.32;2.72;;;19.70;99.90;;;20.43;100.00;101922.44;5248500;28;20051;-48
2023/10/08 09:37:04;;;;;;;12.23;3.00;;;19.90;99.90;;;20.53;100.00;101927.00;5243783;28;20055;-48
2023/10/08 09:39:39;;;;;;;8.30;2.13;;;20.00;99.90;;;20.63;100.00;101925.38;5260372;28;20106;-48
2023/10/08 09:42:14;;;;;;;15.60;2.97;;;20.10;99.90;;;20.67;100.00;101927.16;5247918;28;20040;-47
2023/10/08 09:44:47;;;;;;;6.72;2.63;;;20.20;99.90;;;20.66;100.00;101928.03;5247864;28;20085;-47
2023/10/08 09:47:26;;;;;;;9.75;2.72;;;20.20;99.90;;;20.67;100.00;101938.66;5242549;28;20059;-48
2023/10/08 09:50:07;;;;;;;5.82;2.28;;;20.20;99.90;;;20.68;100.00;101948.38;5245638;28;20047;-46
2023/10/08 09:52:49;;;;;;;5.35;2.33;;;20.20;99.90;;;20.73;100.00;101945.78;5247163;28;20051;-46
2023/10/08 09:55:23;;;;;;;6.88;2.25;;;20.30;99.90;;;20.77;100.00;101951.13;5246552;28;20040;-47
2023/10/08 09:57:56;;;;;;;8.25;2.40;;;20.30;99.90;;;20.81;100.00;101947.66;5247778;28;20051;-47
2023/10/08 10:00:31;;;;;;;5.97;2.65;;;20.30;99.90;;;20.89;100.00;101962.75;5231845;28;20461;-48
2023/10/08 10:03:05;;;;;;;8.90;2.40;;;20.40;99.90;;;20.91;100.00;101966.28;5244740;28;20044;-46
2023/10/08 10:05:38;;;;;;;6.43;2.50;;;20.40;99.90;;;20.90;100.00;101965.41;5247627;28;20507;-48
2023/10/08 10:08:10;;;;;;;8.20;2.38;;;20.40;99.90;;;20.90;100.00;101968.06;5244364;28;20053;-46
2023/10/08 10:10:47;;;;;;;8.18;2.63;;;20.50;99.90;;;20.88;100.00;101959.22;5237526;28;20106;-47
2023/10/08 10:13:28;;;;;;;9.23;2.67;;;20.50;99.90;;;20.86;100.00;101967.16;5246097;28;20075;-47
2023/10/08 10:16:00;;;;;;;;;;;20.40;99.90;;;20.86;100.00;101969.81;5261165;28;20054;-48
2023/10/08 10:18:35;;;;;;;9.13;2.60;;;20.40;99.90;;;20.90;100.00;101973.34;5241745;28;19990;-47
2023/10/08 10:21:35;;;;;;;6.88;2.53;;;20.40;99.90;;;20.82;100.00;101970.63;5243274;28;20048;-46
2023/10/08 10:24:24;;;;;;;10.30;3.15;;;20.40;99.90;;;20.72;100.00;101979.31;5262238;28;20048;-47
2023/10/08 10:27:14;;;;;;;6.50;2.70;;;20.30;99.90;;;20.65;100.00;101972.19;5243277;28;20460;-46
2023/10/08 10:29:47;;;;;;;12.48;3.67;;;20.20;99.90;;;20.59;100.00;101974.75;5241657;28;20040;-48
2023/10/08 10:32:20;;;;;;;9.65;3.35;;;20.20;99.90;;;20.54;100.00;101979.13;5261168;28;20495;-46
2023/10/08 10:34:53;;;;;;;10.60;3.22;;;20.10;99.90;;;20.50;100.00;101982.59;5241258;28;20315;-46
2023/10/08 10:37:40;;;;;;;7.57;2.78;;;20.10;99.90;;;20.48;100.00;101981.69;5262712;28;20063;-46
2023/10/08 10:40:13;;;;;;;8.85;3.47;;;20.00;99.90;;;20.47;100.00;101971.94;5239505;28;20041;-47
2023/10/08 10:42:53;;;;;;;9.75;2.72;;;20.00;99.90;;;20.53;100.00;101977.31;5243916;28;20056;-47
2023/10/08 10:45:42;;;;;;;9.07;3.17;;;20.00;99.90;;;20.61;100.00;101973.03;5242491;28;20101;-46
2023/10/08 10:48:21;;;;;;;7.95;2.50;;;20.10;99.90;;;20.71;100.00;101977.56;5243650;28;20048;-46
2023/10/08 10:51:10;;;;;;;8.73;2.80;;;20.10;99.90;;;20.78;100.00;101971.44;5239728;28;20135;-46
2023/10/08 10:53:56;;;;;;;9.40;3.22;;;20.20;99.90;;;20.81;100.00;101963.56;5240051;28;20401;-46
2023/10/08 10:56:29;;;;;;;8.70;3.05;;;20.30;99.90;;;20.86;100.00;101964.50;5238155;28;20442;-46